sensor_id;sensor_type;location;lat;lon;timestamp;P1;durP1;ratioP1;P2;durP2;ratioP2
14933;SDS011;7560;51.364;12.384;2023-03-23T00:04:41;1.60;;;1.50;;
14933;SDS011;7560;51.364;12.384;2023-03-23T00:09:42;3.03;;;1.25;;
14933;SDS011;7560;51.364;12.384;2023-03-23T00:14:43;3.08;;;1.73;;
14933;SDS011;7560;51.364;12.384;2023-03-23T00:19:44;4.32;;;1.58;;
14933;SDS011;7560;51.364;12.384;2023-03-23T00:24:48;1.52;;;1.33;;
14933;SDS011;7560;51.364;12.384;2023-03-23T00:29:51;2.08;;;1.30;;
14933;SDS011;7560;51.364;12.384;2023-03-23T00:34:53;1.80;;;1.40;;
14933;SDS011;7560;51.364;12.384;2023-03-23T00:39:58;1.65;;;1.52;;
14933;SDS011;7560;51.364;12.384;2023-03-23T00:45:00;2.20;;;1.50;;
14933;SDS011;7560;51.364;12.384;2023-03-23T00:50:02;1.95;;;1.30;;
14933;SDS011;7560;51.364;12.384;2023-03-23T00:55:05;1.52;;;1.20;;
14933;SDS011;7560;51.364;12.384;2023-03-23T01:00:07;1.92;;;1.30;;
14933;SDS011;7560;51.364;12.384;2023-03-23T01:05:11;1.45;;;1.30;;
14933;SDS011;7560;51.364;12.384;2023-03-23T01:10:13;2.30;;;1.30;;
14933;SDS011;7560;51.364;12.384;2023-03-23T01:15:16;1.50;;;1.20;;
14933;SDS011;7560;51.364;12.384;2023-03-23T01:20:17;1.60;;;1.30;;
14933;SDS011;7560;51.364;12.384;2023-03-23T01:25:18;2.60;;;1.20;;
14933;SDS011;7560;51.364;12.384;2023-03-23T01:30:19;1.77;;;1.40;;
14933;SDS011;7560;51.364;12.384;2023-03-23T01:35:20;2.38;;;1.30;;
14933;SDS011;7560;51.364;12.384;2023-03-23T01:40:21;1.67;;;1.30;;
14933;SDS011;7560;51.364;12.384;2023-03-23T01:50:25;2.35;;;1.27;;
14933;SDS011;7560;51.364;12.384;2023-03-23T01:55:28;1.20;;;1.10;;
14933;SDS011;7560;51.364;12.384;2023-03-23T02:00:30;2.33;;;1.30;;
14933;SDS011;7560;51.364;12.384;2023-03-23T02:05:33;2.15;;;1.00;;
14933;SDS011;7560;51.364;12.384;2023-03-23T02:10:37;1.63;;;1.25;;
14933;SDS011;7560;51.364;12.384;2023-03-23T02:26:46;2.15;;;1.20;;
14933;SDS011;7560;51.364;12.384;2023-03-23T02:32:07;2.05;;;1.23;;
14933;SDS011;7560;51.364;12.384;2023-03-23T02:37:34;2.72;;;1.20;;
14933;SDS011;7560;51.364;12.384;2023-03-23T02:42:39;3.65;;;1.20;;
14933;SDS011;7560;51.364;12.384;2023-03-23T02:47:42;2.08;;;1.10;;
14933;SDS011;7560;51.364;12.384;2023-03-23T02:52:45;1.85;;;1.20;;
14933;SDS011;7560;51.364;12.384;2023-03-23T02:57:48;2.60;;;1.10;;
14933;SDS011;7560;51.364;12.384;2023-03-23T03:02:52;5.45;;;1.40;;
14933;SDS011;7560;51.364;12.384;2023-03-23T03:18:41;2.17;;;1.02;;
14933;SDS011;7560;51.364;12.384;2023-03-23T03:24:02;1.73;;;1.02;;
14933;SDS011;7560;51.364;12.384;2023-03-23T03:29:08;2.17;;;0.85;;
14933;SDS011;7560;51.364;12.384;2023-03-23T03:34:08;1.75;;;1.10;;
14933;SDS011;7560;51.364;12.384;2023-03-23T03:39:09;1.77;;;1.17;;
14933;SDS011;7560;51.364;12.384;2023-03-23T03:44:10;1.27;;;1.10;;
14933;SDS011;7560;51.364;12.384;2023-03-23T03:49:11;4.03;;;1.20;;
14933;SDS011;7560;51.364;12.384;2023-03-23T03:54:12;1.23;;;1.00;;
14933;SDS011;7560;51.364;12.384;2023-03-23T03:59:13;1.70;;;1.25;;
14933;SDS011;7560;51.364;12.384;2023-03-23T04:04:14;1.27;;;1.02;;
14933;SDS011;7560;51.364;12.384;2023-03-23T04:09:14;1.98;;;1.10;;
14933;SDS011;7560;51.364;12.384;2023-03-23T04:14:15;2.05;;;1.33;;
14933;SDS011;7560;51.364;12.384;2023-03-23T04:19:16;2.65;;;1.42;;
14933;SDS011;7560;51.364;12.384;2023-03-23T04:24:18;1.80;;;1.40;;
14933;SDS011;7560;51.364;12.384;2023-03-23T04:29:21;2.20;;;1.30;;
14933;SDS011;7560;51.364;12.384;2023-03-23T04:34:22;1.83;;;1.17;;
14933;SDS011;7560;51.364;12.384;2023-03-23T04:39:23;1.60;;;1.25;;
14933;SDS011;7560;51.364;12.384;2023-03-23T04:44:24;1.45;;;1.20;;
14933;SDS011;7560;51.364;12.384;2023-03-23T04:49:24;2.80;;;1.10;;
14933;SDS011;7560;51.364;12.384;2023-03-23T04:54:25;2.33;;;1.60;;
14933;SDS011;7560;51.364;12.384;2023-03-23T04:59:29;2.38;;;1.52;;
14933;SDS011;7560;51.364;12.384;2023-03-23T05:04:30;3.50;;;1.35;;
14933;SDS011;7560;51.364;12.384;2023-03-23T05:09:33;3.92;;;1.30;;
14933;SDS011;7560;51.364;12.384;2023-03-23T05:14:35;1.63;;;1.42;;
14933;SDS011;7560;51.364;12.384;2023-03-23T05:19:41;1.92;;;1.52;;
14933;SDS011;7560;51.364;12.384;2023-03-23T05:24:43;2.28;;;1.58;;
14933;SDS011;7560;51.364;12.384;2023-03-23T05:29:44;2.42;;;1.55;;
14933;SDS011;7560;51.364;12.384;2023-03-23T05:34:48;2.47;;;1.70;;
14933;SDS011;7560;51.364;12.384;2023-03-23T05:39:49;2.95;;;1.58;;
14933;SDS011;7560;51.364;12.384;2023-03-23T05:44:53;1.75;;;1.50;;
14933;SDS011;7560;51.364;12.384;2023-03-23T05:49:54;1.75;;;1.40;;
14933;SDS011;7560;51.364;12.384;2023-03-23T05:54:55;1.83;;;1.33;;
14933;SDS011;7560;51.364;12.384;2023-03-23T05:59:56;2.10;;;1.65;;
14933;SDS011;7560;51.364;12.384;2023-03-23T06:04:58;3.22;;;1.88;;
14933;SDS011;7560;51.364;12.384;2023-03-23T06:09:58;2.72;;;1.90;;
14933;SDS011;7560;51.364;12.384;2023-03-23T06:15:00;2.80;;;2.05;;
14933;SDS011;7560;51.364;12.384;2023-03-23T06:20:01;3.40;;;2.17;;
14933;SDS011;7560;51.364;12.384;2023-03-23T06:25:08;2.10;;;1.90;;
14933;SDS011;7560;51.364;12.384;2023-03-23T06:30:11;2.38;;;1.77;;
14933;SDS011;7560;51.364;12.384;2023-03-23T06:35:15;4.88;;;2.50;;
14933;SDS011;7560;51.364;12.384;2023-03-23T06:40:15;5.05;;;2.42;;
14933;SDS011;7560;51.364;12.384;2023-03-23T06:45:18;3.55;;;2.08;;
14933;SDS011;7560;51.364;12.384;2023-03-23T06:50:21;3.25;;;2.20;;
14933;SDS011;7560;51.364;12.384;2023-03-23T06:55:22;2.60;;;2.00;;
14933;SDS011;7560;51.364;12.384;2023-03-23T07:00:23;3.28;;;2.60;;
14933;SDS011;7560;51.364;12.384;2023-03-23T07:05:23;3.33;;;2.75;;
14933;SDS011;7560;51.364;12.384;2023-03-23T07:10:25;3.05;;;1.73;;
14933;SDS011;7560;51.364;12.384;2023-03-23T07:15:26;2.20;;;1.48;;
14933;SDS011;7560;51.364;12.384;2023-03-23T07:20:27;4.70;;;1.40;;
14933;SDS011;7560;51.364;12.384;2023-03-23T07:25:28;2.38;;;1.20;;
14933;SDS011;7560;51.364;12.384;2023-03-23T07:30:29;2.95;;;1.20;;
14933;SDS011;7560;51.364;12.384;2023-03-23T07:35:30;1.42;;;1.15;;
14933;SDS011;7560;51.364;12.384;2023-03-23T07:40:31;3.00;;;1.20;;
14933;SDS011;7560;51.364;12.384;2023-03-23T07:45:33;1.13;;;1.00;;
14933;SDS011;7560;51.364;12.384;2023-03-23T07:50:34;2.35;;;1.10;;
14933;SDS011;7560;51.364;12.384;2023-03-23T07:55:37;1.48;;;1.13;;
14933;SDS011;7560;51.364;12.384;2023-03-23T08:00:37;1.95;;;1.30;;
14933;SDS011;7560;51.364;12.384;2023-03-23T08:05:39;1.92;;;1.38;;
14933;SDS011;7560;51.364;12.384;2023-03-23T08:10:41;6.28;;;1.63;;
14933;SDS011;7560;51.364;12.384;2023-03-23T08:15:42;2.83;;;1.17;;
14933;SDS011;7560;51.364;12.384;2023-03-23T08:20:44;3.22;;;1.67;;
14933;SDS011;7560;51.364;12.384;2023-03-23T08:25:45;5.82;;;3.13;;
14933;SDS011;7560;51.364;12.384;2023-03-23T08:30:46;3.00;;;1.60;;
14933;SDS011;7560;51.364;12.384;2023-03-23T08:35:54;2.30;;;1.50;;
14933;SDS011;7560;51.364;12.384;2023-03-23T08:40:57;2.83;;;1.80;;
14933;SDS011;7560;51.364;12.384;2023-03-23T08:45:59;2.20;;;1.77;;
14933;SDS011;7560;51.364;12.384;2023-03-23T08:51:03;2.42;;;1.75;;
14933;SDS011;7560;51.364;12.384;2023-03-23T08:56:18;2.58;;;1.65;;
14933;SDS011;7560;51.364;12.384;2023-03-23T09:01:47;3.60;;;1.80;;
14933;SDS011;7560;51.364;12.384;2023-03-23T09:06:48;2.60;;;1.88;;
14933;SDS011;7560;51.364;12.384;2023-03-23T09:11:49;2.63;;;1.83;;
14933;SDS011;7560;51.364;12.384;2023-03-23T09:16:50;2.15;;;1.63;;
14933;SDS011;7560;51.364;12.384;2023-03-23T09:21:51;5.32;;;1.60;;
14933;SDS011;7560;51.364;12.384;2023-03-23T09:26:52;3.33;;;1.67;;
14933;SDS011;7560;51.364;12.384;2023-03-23T09:31:53;3.00;;;1.73;;
14933;SDS011;7560;51.364;12.384;2023-03-23T09:36:56;1.92;;;1.50;;
14933;SDS011;7560;51.364;12.384;2023-03-23T09:52:52;3.13;;;1.88;;
14933;SDS011;7560;51.364;12.384;2023-03-23T09:58:18;2.15;;;1.65;;
14933;SDS011;7560;51.364;12.384;2023-03-23T10:03:38;3.03;;;1.55;;
14933;SDS011;7560;51.364;12.384;2023-03-23T10:08:47;2.17;;;1.67;;
14933;SDS011;7560;51.364;12.384;2023-03-23T10:24:11;3.03;;;1.50;;
14933;SDS011;7560;51.364;12.384;2023-03-23T10:29:19;2.42;;;1.40;;
14933;SDS011;7560;51.364;12.384;2023-03-23T10:39:52;2.20;;;1.17;;
14933;SDS011;7560;51.364;12.384;2023-03-23T10:44:55;1.77;;;1.23;;
14933;SDS011;7560;51.364;12.384;2023-03-23T10:49:59;2.55;;;1.10;;
14933;SDS011;7560;51.364;12.384;2023-03-23T11:00:21;2.05;;;1.00;;
14933;SDS011;7560;51.364;12.384;2023-03-23T11:05:36;1.75;;;1.00;;
14933;SDS011;7560;51.364;12.384;2023-03-23T11:10:46;4.00;;;0.90;;
14933;SDS011;7560;51.364;12.384;2023-03-23T11:15:50;1.50;;;0.70;;
14933;SDS011;7560;51.364;12.384;2023-03-23T11:20:52;1.15;;;0.82;;
14933;SDS011;7560;51.364;12.384;2023-03-23T11:26:05;1.15;;;0.70;;
14933;SDS011;7560;51.364;12.384;2023-03-23T11:31:15;2.47;;;1.00;;
14933;SDS011;7560;51.364;12.384;2023-03-23T11:36:16;3.65;;;1.00;;
14933;SDS011;7560;51.364;12.384;2023-03-23T11:41:18;1.90;;;1.00;;
14933;SDS011;7560;51.364;12.384;2023-03-23T11:46:43;1.80;;;0.90;;
14933;SDS011;7560;51.364;12.384;2023-03-23T11:51:48;0.80;;;0.77;;
14933;SDS011;7560;51.364;12.384;2023-03-23T11:57:11;1.75;;;1.08;;
14933;SDS011;7560;51.364;12.384;2023-03-23T12:02:35;1.00;;;0.88;;
14933;SDS011;7560;51.364;12.384;2023-03-23T12:18:40;1.50;;;0.90;;
14933;SDS011;7560;51.364;12.384;2023-03-23T12:24:12;1.70;;;1.08;;
14933;SDS011;7560;51.364;12.384;2023-03-23T12:29:33;2.90;;;1.02;;
14933;SDS011;7560;51.364;12.384;2023-03-23T12:34:45;1.92;;;0.90;;
14933;SDS011;7560;51.364;12.384;2023-03-23T12:56:21;1.63;;;0.90;;
14933;SDS011;7560;51.364;12.384;2023-03-23T13:01:30;1.10;;;0.90;;
14933;SDS011;7560;51.364;12.384;2023-03-23T13:06:39;1.00;;;0.85;;
14933;SDS011;7560;51.364;12.384;2023-03-23T13:11:46;1.00;;;0.82;;
14933;SDS011;7560;51.364;12.384;2023-03-23T13:17:02;1.60;;;0.90;;
14933;SDS011;7560;51.364;12.384;2023-03-23T13:22:27;1.08;;;0.75;;
14933;SDS011;7560;51.364;12.384;2023-03-23T13:27:37;1.88;;;0.80;;
14933;SDS011;7560;51.364;12.384;2023-03-23T13:32:38;1.42;;;0.90;;
14933;SDS011;7560;51.364;12.384;2023-03-23T13:37:41;1.10;;;0.80;;
14933;SDS011;7560;51.364;12.384;2023-03-23T13:42:50;3.05;;;0.80;;
14933;SDS011;7560;51.364;12.384;2023-03-23T13:58:43;0.70;;;0.70;;
14933;SDS011;7560;51.364;12.384;2023-03-23T14:03:47;1.92;;;0.90;;
14933;SDS011;7560;51.364;12.384;2023-03-23T14:08:53;1.95;;;0.90;;
14933;SDS011;7560;51.364;12.384;2023-03-23T14:14:00;1.52;;;0.80;;
14933;SDS011;7560;51.364;12.384;2023-03-23T14:19:04;2.00;;;0.82;;
14933;SDS011;7560;51.364;12.384;2023-03-23T14:24:23;1.98;;;0.73;;
14933;SDS011;7560;51.364;12.384;2023-03-23T14:29:28;1.77;;;1.00;;
14933;SDS011;7560;51.364;12.384;2023-03-23T14:34:30;0.98;;;0.75;;
14933;SDS011;7560;51.364;12.384;2023-03-23T14:39:32;1.38;;;0.80;;
14933;SDS011;7560;51.364;12.384;2023-03-23T14:44:37;1.55;;;0.90;;
14933;SDS011;7560;51.364;12.384;2023-03-23T14:49:41;1.20;;;1.02;;
14933;SDS011;7560;51.364;12.384;2023-03-23T14:54:44;2.58;;;0.90;;
14933;SDS011;7560;51.364;12.384;2023-03-23T14:59:46;1.23;;;0.88;;
14933;SDS011;7560;51.364;12.384;2023-03-23T15:04:49;1.25;;;0.80;;
14933;SDS011;7560;51.364;12.384;2023-03-23T15:09:53;0.77;;;0.77;;
14933;SDS011;7560;51.364;12.384;2023-03-23T15:14:55;1.10;;;0.90;;
14933;SDS011;7560;51.364;12.384;2023-03-23T15:19:57;2.65;;;0.95;;
14933;SDS011;7560;51.364;12.384;2023-03-23T15:25:39;2.97;;;1.00;;
14933;SDS011;7560;51.364;12.384;2023-03-23T15:36:16;1.83;;;0.90;;
14933;SDS011;7560;51.364;12.384;2023-03-23T15:41:25;2.40;;;1.10;;
14933;SDS011;7560;51.364;12.384;2023-03-23T15:46:33;1.42;;;0.90;;
14933;SDS011;7560;51.364;12.384;2023-03-23T15:51:33;2.35;;;1.20;;
14933;SDS011;7560;51.364;12.384;2023-03-23T15:56:34;1.80;;;0.80;;
14933;SDS011;7560;51.364;12.384;2023-03-23T16:01:36;1.15;;;0.85;;
14933;SDS011;7560;51.364;12.384;2023-03-23T16:06:40;1.60;;;1.00;;
14933;SDS011;7560;51.364;12.384;2023-03-23T16:11:43;2.00;;;1.27;;
14933;SDS011;7560;51.364;12.384;2023-03-23T16:16:48;1.15;;;1.05;;
14933;SDS011;7560;51.364;12.384;2023-03-23T16:21:52;2.10;;;1.20;;
14933;SDS011;7560;51.364;12.384;2023-03-23T16:26:54;1.60;;;1.00;;
14933;SDS011;7560;51.364;12.384;2023-03-23T16:31:56;1.77;;;1.10;;
14933;SDS011;7560;51.364;12.384;2023-03-23T16:36:58;1.00;;;0.90;;
14933;SDS011;7560;51.364;12.384;2023-03-23T16:42:00;1.52;;;0.90;;
14933;SDS011;7560;51.364;12.384;2023-03-23T16:47:01;4.10;;;1.10;;
14933;SDS011;7560;51.364;12.384;2023-03-23T16:52:03;1.90;;;1.00;;
14933;SDS011;7560;51.364;12.384;2023-03-23T16:57:05;1.00;;;0.80;;
14933;SDS011;7560;51.364;12.384;2023-03-23T17:02:11;0.90;;;0.70;;
14933;SDS011;7560;51.364;12.384;2023-03-23T17:07:13;0.80;;;0.80;;
14933;SDS011;7560;51.364;12.384;2023-03-23T17:12:14;0.80;;;0.80;;
14933;SDS011;7560;51.364;12.384;2023-03-23T17:17:16;0.80;;;0.77;;
14933;SDS011;7560;51.364;12.384;2023-03-23T17:22:19;1.02;;;0.85;;
14933;SDS011;7560;51.364;12.384;2023-03-23T17:27:21;1.50;;;1.10;;
14933;SDS011;7560;51.364;12.384;2023-03-23T17:32:23;1.63;;;1.20;;
14933;SDS011;7560;51.364;12.384;2023-03-23T17:37:26;2.28;;;1.42;;
14933;SDS011;7560;51.364;12.384;2023-03-23T17:42:28;1.92;;;1.70;;
14933;SDS011;7560;51.364;12.384;2023-03-23T17:47:30;1.50;;;1.30;;
14933;SDS011;7560;51.364;12.384;2023-03-23T17:52:32;1.98;;;1.58;;
14933;SDS011;7560;51.364;12.384;2023-03-23T17:57:34;1.70;;;1.20;;
14933;SDS011;7560;51.364;12.384;2023-03-23T18:02:36;3.67;;;1.60;;
14933;SDS011;7560;51.364;12.384;2023-03-23T18:07:38;1.60;;;1.30;;
14933;SDS011;7560;51.364;12.384;2023-03-23T18:12:40;1.48;;;1.20;;
14933;SDS011;7560;51.364;12.384;2023-03-23T18:17:42;2.78;;;1.25;;
14933;SDS011;7560;51.364;12.384;2023-03-23T18:22:48;1.83;;;1.33;;
14933;SDS011;7560;51.364;12.384;2023-03-23T18:27:50;2.25;;;1.40;;
14933;SDS011;7560;51.364;12.384;2023-03-23T18:32:52;2.08;;;1.55;;
14933;SDS011;7560;51.364;12.384;2023-03-23T18:37:54;1.80;;;1.38;;
14933;SDS011;7560;51.364;12.384;2023-03-23T18:42:55;1.52;;;1.42;;
14933;SDS011;7560;51.364;12.384;2023-03-23T18:47:57;1.70;;;1.60;;
14933;SDS011;7560;51.364;12.384;2023-03-23T18:52:59;3.42;;;1.67;;
14933;SDS011;7560;51.364;12.384;2023-03-23T18:58:01;5.32;;;1.35;;
14933;SDS011;7560;51.364;12.384;2023-03-23T19:03:04;2.80;;;1.70;;
14933;SDS011;7560;51.364;12.384;2023-03-23T19:08:07;3.17;;;1.50;;
14933;SDS011;7560;51.364;12.384;2023-03-23T19:13:09;2.05;;;1.23;;
14933;SDS011;7560;51.364;12.384;2023-03-23T19:18:11;2.47;;;1.38;;
14933;SDS011;7560;51.364;12.384;2023-03-23T19:23:13;1.80;;;1.48;;
14933;SDS011;7560;51.364;12.384;2023-03-23T19:28:15;1.67;;;1.30;;
14933;SDS011;7560;51.364;12.384;2023-03-23T19:33:19;1.98;;;1.17;;
14933;SDS011;7560;51.364;12.384;2023-03-23T19:38:22;1.50;;;1.30;;
14933;SDS011;7560;51.364;12.384;2023-03-23T19:43:23;1.30;;;1.20;;
14933;SDS011;7560;51.364;12.384;2023-03-23T19:48:27;1.63;;;1.50;;
14933;SDS011;7560;51.364;12.384;2023-03-23T19:53:31;1.50;;;1.40;;
14933;SDS011;7560;51.364;12.384;2023-03-23T19:58:34;1.98;;;1.52;;
14933;SDS011;7560;51.364;12.384;2023-03-23T20:03:36;2.83;;;1.90;;
14933;SDS011;7560;51.364;12.384;2023-03-23T20:08:39;1.70;;;1.60;;
14933;SDS011;7560;51.364;12.384;2023-03-23T20:13:44;2.20;;;1.60;;
14933;SDS011;7560;51.364;12.384;2023-03-23T20:18:47;2.92;;;1.80;;
14933;SDS011;7560;51.364;12.384;2023-03-23T20:23:51;2.13;;;1.92;;
14933;SDS011;7560;51.364;12.384;2023-03-23T20:28:55;1.77;;;1.67;;
14933;SDS011;7560;51.364;12.384;2023-03-23T20:33:58;3.67;;;2.05;;
14933;SDS011;7560;51.364;12.384;2023-03-23T20:39:03;2.15;;;1.90;;
14933;SDS011;7560;51.364;12.384;2023-03-23T20:44:08;3.03;;;2.03;;
14933;SDS011;7560;51.364;12.384;2023-03-23T20:49:16;2.42;;;2.15;;
14933;SDS011;7560;51.364;12.384;2023-03-23T20:54:22;3.20;;;2.50;;
14933;SDS011;7560;51.364;12.384;2023-03-23T20:59:24;2.90;;;2.10;;
14933;SDS011;7560;51.364;12.384;2023-03-23T21:04:26;2.28;;;2.08;;
14933;SDS011;7560;51.364;12.384;2023-03-23T21:09:30;2.53;;;2.00;;
14933;SDS011;7560;51.364;12.384;2023-03-23T21:14:32;2.90;;;1.73;;
14933;SDS011;7560;51.364;12.384;2023-03-23T21:19:34;2.47;;;2.08;;
14933;SDS011;7560;51.364;12.384;2023-03-23T21:24:36;2.88;;;1.90;;
14933;SDS011;7560;51.364;12.384;2023-03-23T21:29:38;3.05;;;2.20;;
14933;SDS011;7560;51.364;12.384;2023-03-23T21:34:40;2.10;;;1.90;;
14933;SDS011;7560;51.364;12.384;2023-03-23T21:39:43;2.47;;;2.28;;
14933;SDS011;7560;51.364;12.384;2023-03-23T21:44:45;2.47;;;2.00;;
14933;SDS011;7560;51.364;12.384;2023-03-23T21:49:50;2.50;;;1.77;;
14933;SDS011;7560;51.364;12.384;2023-03-23T21:54:52;3.58;;;2.20;;
14933;SDS011;7560;51.364;12.384;2023-03-23T21:59:54;2.30;;;1.98;;
14933;SDS011;7560;51.364;12.384;2023-03-23T22:04:56;2.28;;;2.08;;
14933;SDS011;7560;51.364;12.384;2023-03-23T22:09:58;2.08;;;1.90;;
14933;SDS011;7560;51.364;12.384;2023-03-23T22:15:01;3.08;;;2.00;;
14933;SDS011;7560;51.364;12.384;2023-03-23T22:20:05;2.78;;;1.83;;
14933;SDS011;7560;51.364;12.384;2023-03-23T22:25:10;2.42;;;1.88;;
14933;SDS011;7560;51.364;12.384;2023-03-23T22:30:13;2.55;;;2.10;;
14933;SDS011;7560;51.364;12.384;2023-03-23T22:35:16;2.22;;;1.52;;
14933;SDS011;7560;51.364;12.384;2023-03-23T22:40:18;1.90;;;1.80;;
14933;SDS011;7560;51.364;12.384;2023-03-23T22:45:19;1.88;;;1.60;;
14933;SDS011;7560;51.364;12.384;2023-03-23T22:50:23;1.77;;;1.67;;
14933;SDS011;7560;51.364;12.384;2023-03-23T22:55:27;2.75;;;1.50;;
14933;SDS011;7560;51.364;12.384;2023-03-23T23:00:29;3.78;;;1.92;;
14933;SDS011;7560;51.364;12.384;2023-03-23T23:05:31;2.85;;;1.60;;
14933;SDS011;7560;51.364;12.384;2023-03-23T23:10:34;2.10;;;1.60;;
14933;SDS011;7560;51.364;12.384;2023-03-23T23:15:37;2.08;;;1.48;;
14933;SDS011;7560;51.364;12.384;2023-03-23T23:20:42;2.08;;;1.83;;
14933;SDS011;7560;51.364;12.384;2023-03-23T23:25:44;2.88;;;1.50;;
14933;SDS011;7560;51.364;12.384;2023-03-23T23:30:47;2.15;;;1.45;;
14933;SDS011;7560;51.364;12.384;2023-03-23T23:35:49;2.13;;;1.60;;
14933;SDS011;7560;51.364;12.384;2023-03-23T23:40:52;2.10;;;1.55;;
14933;SDS011;7560;51.364;12.384;2023-03-23T23:45:53;2.28;;;1.60;;
14933;SDS011;7560;51.364;12.384;2023-03-23T23:50:55;2.38;;;1.63;;
14933;SDS011;7560;51.364;12.384;2023-03-23T23:56:01;2.38;;;1.55;;
